Champion, Ohio
Current Conditions -  °F | °C
As of 4:36 AM on Thursday 27 Nov 2014 (Local Time) from KYNG Reporting Station
Light Snow Light Snow  
Wind Chill: 27°   Ceiling: 900
Heat Index: 32°   Visibility: 7mi
Dew Point: 27°   Wind: 5mph
Humidity: 82%   Direction: 270°W
Pressure: 29.99"   Gusts: NA
Location:  41.2735°N, 80.8217°W
Report Text: KYNG 270936Z 27004KT 7SM -SN BKN009 OVC030 00/M03 A2999 RMK AO2 SNB11 P0000 T00001028
Loading
Personal Weather Stations






























Interactive Weather Map New forecast layout! Learn more

10-Day Weather Forecast

Advertisements
Track Severe Weather on mobile